sensor_id;sensor_type;location;lat;lon;timestamp;pressure;altitude;pressure_sealevel;temperature;humidity
23261;BME280;11799;47.740;-3.390;2023-07-13T00:01:46;101856.19;;;17.87;100.00
23261;BME280;11799;47.740;-3.390;2023-07-13T00:04:16;101859.84;;;17.86;100.00
23261;BME280;11799;47.740;-3.390;2023-07-13T00:06:42;101871.09;;;17.90;100.00
23261;BME280;11799;47.740;-3.390;2023-07-13T00:09:14;101862.38;;;17.88;100.00
23261;BME280;11799;47.740;-3.390;2023-07-13T00:11:40;101856.47;;;17.84;100.00
23261;BME280;11799;47.740;-3.390;2023-07-13T00:14:06;101862.53;;;17.86;100.00
23261;BME280;11799;47.740;-3.390;2023-07-13T00:16:34;101854.50;;;17.86;100.00
23261;BME280;11799;47.740;-3.390;2023-07-13T00:19:00;101852.25;;;17.81;100.00
23261;BME280;11799;47.740;-3.390;2023-07-13T00:21:26;101853.94;;;17.83;100.00
23261;BME280;11799;47.740;-3.390;2023-07-13T00:23:52;101843.97;;;17.85;100.00
23261;BME280;11799;47.740;-3.390;2023-07-13T00:26:18;101853.66;;;17.86;100.00
23261;BME280;11799;47.740;-3.390;2023-07-13T00:28:43;101859.00;;;17.86;100.00
23261;BME280;11799;47.740;-3.390;2023-07-13T00:31:11;101856.34;;;17.86;100.00
23261;BME280;11799;47.740;-3.390;2023-07-13T00:33:37;101860.00;;;17.85;100.00
23261;BME280;11799;47.740;-3.390;2023-07-13T00:36:03;101853.81;;;17.84;100.00
23261;BME280;11799;47.740;-3.390;2023-07-13T00:38:29;101858.16;;;17.85;100.00
23261;BME280;11799;47.740;-3.390;2023-07-13T00:40:55;101853.66;;;17.86;100.00
23261;BME280;11799;47.740;-3.390;2023-07-13T00:43:23;101861.81;;;17.84;100.00
23261;BME280;11799;47.740;-3.390;2023-07-13T00:48:27;101861.13;;;17.82;100.00
23261;BME280;11799;47.740;-3.390;2023-07-13T00:50:57;101843.13;;;17.74;100.00
23261;BME280;11799;47.740;-3.390;2023-07-13T00:53:25;101857.59;;;17.81;100.00
23261;BME280;11799;47.740;-3.390;2023-07-13T00:55:53;101860.13;;;17.83;100.00
23261;BME280;11799;47.740;-3.390;2023-07-13T00:58:21;101861.13;;;17.82;100.00
23261;BME280;11799;47.740;-3.390;2023-07-13T01:00:48;101857.47;;;17.83;100.00
23261;BME280;11799;47.740;-3.390;2023-07-13T01:03:15;101857.75;;;17.80;100.00
23261;BME280;11799;47.740;-3.390;2023-07-13T01:05:41;101851.69;;;17.78;100.00
23261;BME280;11799;47.740;-3.390;2023-07-13T01:08:08;101859.16;;;17.84;100.00
23261;BME280;11799;47.740;-3.390;2023-07-13T01:10:34;101849.72;;;17.80;100.00
23261;BME280;11799;47.740;-3.390;2023-07-13T01:13:10;101859.16;;;17.84;100.00
23261;BME280;11799;47.740;-3.390;2023-07-13T01:15:39;101856.34;;;17.86;100.00
23261;BME280;11799;47.740;-3.390;2023-07-13T01:18:18;101866.03;;;17.87;100.00
23261;BME280;11799;47.740;-3.390;2023-07-13T01:21:11;101865.19;;;17.86;100.00
23261;BME280;11799;47.740;-3.390;2023-07-13T01:23:39;101860.84;;;17.85;100.00
23261;BME280;11799;47.740;-3.390;2023-07-13T01:26:04;101860.84;;;17.85;100.00
23261;BME280;11799;47.740;-3.390;2023-07-13T01:28:30;101857.31;;;17.85;100.00
23261;BME280;11799;47.740;-3.390;2023-07-13T01:30:57;101856.19;;;17.87;100.00
23261;BME280;11799;47.740;-3.390;2023-07-13T01:33:24;101853.53;;;17.87;100.00
23261;BME280;11799;47.740;-3.390;2023-07-13T01:35:50;101856.47;;;17.84;100.00
23261;BME280;11799;47.740;-3.390;2023-07-13T01:38:18;101854.09;;;17.81;100.00
23261;BME280;11799;47.740;-3.390;2023-07-13T01:40:44;101855.91;;;17.80;100.00
23261;BME280;11799;47.740;-3.390;2023-07-13T01:43:10;101846.91;;;17.81;100.00
23261;BME280;11799;47.740;-3.390;2023-07-13T01:45:36;101847.75;;;17.82;100.00
23261;BME280;11799;47.740;-3.390;2023-07-13T01:48:01;101847.91;;;17.80;100.00
23261;BME280;11799;47.740;-3.390;2023-07-13T01:50:27;101842.69;;;17.79;100.00
23261;BME280;11799;47.740;-3.390;2023-07-13T01:52:53;101841.84;;;17.78;100.00
23261;BME280;11799;47.740;-3.390;2023-07-13T01:55:20;101837.22;;;17.80;100.00
23261;BME280;11799;47.740;-3.390;2023-07-13T01:57:46;101836.94;;;17.84;100.00
23261;BME280;11799;47.740;-3.390;2023-07-13T02:00:13;101838.75;;;17.83;100.00
23261;BME280;11799;47.740;-3.390;2023-07-13T02:02:42;101844.38;;;17.80;100.00
23261;BME280;11799;47.740;-3.390;2023-07-13T02:05:09;101836.38;;;17.80;100.00
23261;BME280;11799;47.740;-3.390;2023-07-13T02:07:35;101828.22;;;17.81;100.00
23261;BME280;11799;47.740;-3.390;2023-07-13T02:10:02;101836.38;;;17.80;100.00
23261;BME280;11799;47.740;-3.390;2023-07-13T02:12:28;101835.09;;;17.74;100.00
23261;BME280;11799;47.740;-3.390;2023-07-13T02:14:54;101833.00;;;17.78;100.00
23261;BME280;11799;47.740;-3.390;2023-07-13T02:17:19;101825.13;;;17.76;100.00
23261;BME280;11799;47.740;-3.390;2023-07-13T02:19:45;101824.28;;;17.76;100.00
23261;BME280;11799;47.740;-3.390;2023-07-13T02:22:11;101815.69;;;17.72;100.00
23261;BME280;11799;47.740;-3.390;2023-07-13T02:24:36;101832.00;;;17.79;100.00
23261;BME280;11799;47.740;-3.390;2023-07-13T02:27:04;101831.03;;;17.80;100.00
23261;BME280;11799;47.740;-3.390;2023-07-13T02:29:30;101829.06;;;17.82;100.00
23261;BME280;11799;47.740;-3.390;2023-07-13T02:31:55;101812.03;;;17.73;100.00
23261;BME280;11799;47.740;-3.390;2023-07-13T02:34:21;101804.72;;;17.75;100.00
23261;BME280;11799;47.740;-3.390;2023-07-13T02:36:47;101819.50;;;17.79;100.00
23261;BME280;11799;47.740;-3.390;2023-07-13T02:39:13;101818.94;;;17.76;100.00
23261;BME280;11799;47.740;-3.390;2023-07-13T02:41:39;101821.47;;;17.77;100.00
23261;BME280;11799;47.740;-3.390;2023-07-13T02:44:05;101817.09;;;17.76;100.00
23261;BME280;11799;47.740;-3.390;2023-07-13T02:46:34;101816.97;;;17.78;100.00
23261;BME280;11799;47.740;-3.390;2023-07-13T02:49:00;101821.31;;;17.79;100.00
23261;BME280;11799;47.740;-3.390;2023-07-13T02:51:26;101815.13;;;17.78;100.00
23261;BME280;11799;47.740;-3.390;2023-07-13T02:53:52;101821.31;;;17.79;100.00
23261;BME280;11799;47.740;-3.390;2023-07-13T02:56:22;101818.66;;;17.79;100.00
23261;BME280;11799;47.740;-3.390;2023-07-13T02:58:48;101814.44;;;17.76;100.00
23261;BME280;11799;47.740;-3.390;2023-07-13T03:01:13;101819.91;;;17.75;100.00
23261;BME280;11799;47.740;-3.390;2023-07-13T03:03:48;101824.13;;;17.77;100.00
23261;BME280;11799;47.740;-3.390;2023-07-13T03:06:15;101816.41;;;17.74;100.00
23261;BME280;11799;47.740;-3.390;2023-07-13T03:08:46;101833.28;;;17.75;100.00
23261;BME280;11799;47.740;-3.390;2023-07-13T03:11:15;101834.41;;;17.72;100.00
23261;BME280;11799;47.740;-3.390;2023-07-13T03:13:42;101835.38;;;17.71;100.00
23261;BME280;11799;47.740;-3.390;2023-07-13T03:16:10;101830.31;;;17.68;100.00
23261;BME280;11799;47.740;-3.390;2023-07-13T03:18:36;101832.72;;;17.71;100.00
23261;BME280;11799;47.740;-3.390;2023-07-13T03:21:05;101836.09;;;17.73;100.00
23261;BME280;11799;47.740;-3.390;2023-07-13T03:23:31;101819.78;;;17.67;100.00
23261;BME280;11799;47.740;-3.390;2023-07-13T03:26:13;101831.72;;;17.72;100.00
23261;BME280;11799;47.740;-3.390;2023-07-13T03:28:40;101833.84;;;17.69;100.00
23261;BME280;11799;47.740;-3.390;2023-07-13T03:31:13;101834.41;;;17.72;100.00
23261;BME280;11799;47.740;-3.390;2023-07-13T03:33:39;101833.56;;;17.72;100.00
23261;BME280;11799;47.740;-3.390;2023-07-13T03:36:06;101831.16;;;17.69;100.00
23261;BME280;11799;47.740;-3.390;2023-07-13T03:38:33;101830.88;;;17.72;100.00
23261;BME280;11799;47.740;-3.390;2023-07-13T03:41:01;101831.03;;;17.70;100.00
23261;BME280;11799;47.740;-3.390;2023-07-13T03:43:27;101834.69;;;17.69;100.00
23261;BME280;11799;47.740;-3.390;2023-07-13T03:45:53;101830.88;;;17.72;100.00
23261;BME280;11799;47.740;-3.390;2023-07-13T03:48:18;101837.06;;;17.72;100.00
23261;BME280;11799;47.740;-3.390;2023-07-13T03:50:44;101840.88;;;17.70;100.00
23261;BME280;11799;47.740;-3.390;2023-07-13T03:53:09;101829.47;;;17.68;100.00
23261;BME280;11799;47.740;-3.390;2023-07-13T03:55:35;101838.91;;;17.72;100.00
23261;BME280;11799;47.740;-3.390;2023-07-13T04:00:55;101850.28;;;17.74;100.00
23261;BME280;11799;47.740;-3.390;2023-07-13T04:03:21;101846.63;;;17.65;100.00
23261;BME280;11799;47.740;-3.390;2023-07-13T04:05:46;101854.22;;;17.70;100.00
23261;BME280;11799;47.740;-3.390;2023-07-13T04:08:13;101861.94;;;17.73;100.00
23261;BME280;11799;47.740;-3.390;2023-07-13T04:10:39;101860.00;;;17.75;100.00
23261;BME280;11799;47.740;-3.390;2023-07-13T04:13:05;101867.16;;;17.74;100.00
23261;BME280;11799;47.740;-3.390;2023-07-13T04:15:31;101864.06;;;17.69;100.00
23261;BME280;11799;47.740;-3.390;2023-07-13T04:17:57;101876.16;;;17.73;100.00
23261;BME280;11799;47.740;-3.390;2023-07-13T04:20:24;101870.81;;;17.73;100.00
23261;BME280;11799;47.740;-3.390;2023-07-13T04:22:50;101872.63;;;17.73;100.00
23261;BME280;11799;47.740;-3.390;2023-07-13T04:25:16;101873.91;;;17.69;100.00
23261;BME280;11799;47.740;-3.390;2023-07-13T04:27:41;101883.59;;;17.70;100.00
23261;BME280;11799;47.740;-3.390;2023-07-13T04:30:07;101882.63;;;17.71;100.00
23261;BME280;11799;47.740;-3.390;2023-07-13T04:32:33;101886.41;;;17.68;100.00
23261;BME280;11799;47.740;-3.390;2023-07-13T04:34:59;101879.53;;;17.66;100.00
23261;BME280;11799;47.740;-3.390;2023-07-13T04:37:25;101888.66;;;17.73;100.00
23261;BME280;11799;47.740;-3.390;2023-07-13T04:39:51;101896.81;;;17.71;100.00
23261;BME280;11799;47.740;-3.390;2023-07-13T04:42:17;101898.66;;;17.71;100.00
23261;BME280;11799;47.740;-3.390;2023-07-13T04:44:50;101895.41;;;17.67;100.00
23261;BME280;11799;47.740;-3.390;2023-07-13T04:47:16;101888.75;;;17.62;100.00
23261;BME280;11799;47.740;-3.390;2023-07-13T04:49:42;101896.97;;;17.70;100.00
23261;BME280;11799;47.740;-3.390;2023-07-13T04:52:07;101897.94;;;17.69;100.00
23261;BME280;11799;47.740;-3.390;2023-07-13T04:54:34;101898.66;;;17.71;100.00
23261;BME280;11799;47.740;-3.390;2023-07-13T04:57:01;101895.28;;;17.69;100.00
23261;BME280;11799;47.740;-3.390;2023-07-13T04:59:26;101903.44;;;17.67;100.00
23261;BME280;11799;47.740;-3.390;2023-07-13T05:01:52;101903.28;;;17.69;100.00
23261;BME280;11799;47.740;-3.390;2023-07-13T05:04:18;101902.31;;;17.70;100.00
23261;BME280;11799;47.740;-3.390;2023-07-13T05:06:44;101906.81;;;17.69;100.00
23261;BME280;11799;47.740;-3.390;2023-07-13T05:09:09;101904.00;;;17.71;100.00
23261;BME280;11799;47.740;-3.390;2023-07-13T05:11:35;101905.69;;;17.72;100.00
23261;BME280;11799;47.740;-3.390;2023-07-13T05:14:00;101907.38;;;17.73;100.00
23261;BME280;11799;47.740;-3.390;2023-07-13T05:16:29;101907.38;;;17.73;100.00
23261;BME280;11799;47.740;-3.390;2023-07-13T05:18:54;101925.09;;;17.74;100.00
23261;BME280;11799;47.740;-3.390;2023-07-13T05:21:20;101917.06;;;17.74;100.00
23261;BME280;11799;47.740;-3.390;2023-07-13T05:23:46;101914.25;;;17.75;100.00
23261;BME280;11799;47.740;-3.390;2023-07-13T05:26:12;101918.63;;;17.76;100.00
23261;BME280;11799;47.740;-3.390;2023-07-13T05:28:38;101923.13;;;17.76;100.00
23261;BME280;11799;47.740;-3.390;2023-07-13T05:31:04;101923.13;;;17.76;100.00
23261;BME280;11799;47.740;-3.390;2023-07-13T05:33:30;101926.50;;;17.78;100.00
23261;BME280;11799;47.740;-3.390;2023-07-13T05:35:56;101931.72;;;17.79;100.00
23261;BME280;11799;47.740;-3.390;2023-07-13T05:38:21;101930.72;;;17.80;100.00
23261;BME280;11799;47.740;-3.390;2023-07-13T05:40:47;101931.00;;;17.77;100.00
23261;BME280;11799;47.740;-3.390;2023-07-13T05:43:13;101936.06;;;17.80;100.00
23261;BME280;11799;47.740;-3.390;2023-07-13T05:45:40;101952.94;;;17.81;100.00
23261;BME280;11799;47.740;-3.390;2023-07-13T05:48:05;101936.91;;;17.81;100.00
23261;BME280;11799;47.740;-3.390;2023-07-13T05:50:31;101953.66;;;17.83;100.00
23261;BME280;11799;47.740;-3.390;2023-07-13T05:52:57;101950.97;;;17.83;100.00
23261;BME280;11799;47.740;-3.390;2023-07-13T05:55:23;101949.84;;;17.86;100.00
23261;BME280;11799;47.740;-3.390;2023-07-13T05:57:48;101951.97;;;17.82;100.00
23261;BME280;11799;47.740;-3.390;2023-07-13T06:00:15;101952.53;;;17.86;100.00
23261;BME280;11799;47.740;-3.390;2023-07-13T06:02:41;101953.38;;;17.86;100.00
23261;BME280;11799;47.740;-3.390;2023-07-13T06:05:07;101958.56;;;17.88;100.00
23261;BME280;11799;47.740;-3.390;2023-07-13T06:07:32;101959.28;;;17.90;100.00
23261;BME280;11799;47.740;-3.390;2023-07-13T06:09:58;101957.16;;;17.93;100.00
23261;BME280;11799;47.740;-3.390;2023-07-13T06:12:25;101955.31;;;17.94;100.00
23261;BME280;11799;47.740;-3.390;2023-07-13T06:14:50;101960.66;;;17.94;100.00
23261;BME280;11799;47.740;-3.390;2023-07-13T06:17:16;101960.53;;;17.95;100.00
23261;BME280;11799;47.740;-3.390;2023-07-13T06:19:42;101962.63;;;17.92;100.00
23261;BME280;11799;47.740;-3.390;2023-07-13T06:22:07;101960.81;;;17.92;100.00
23261;BME280;11799;47.740;-3.390;2023-07-13T06:24:33;101969.53;;;17.94;100.00
23261;BME280;11799;47.740;-3.390;2023-07-13T06:26:58;101964.19;;;17.94;100.00
23261;BME280;11799;47.740;-3.390;2023-07-13T06:29:24;101968.81;;;17.92;100.00
23261;BME280;11799;47.740;-3.390;2023-07-13T06:31:50;101957.28;;;17.92;100.00
23261;BME280;11799;47.740;-3.390;2023-07-13T06:34:15;101966.56;;;17.97;100.00
23261;BME280;11799;47.740;-3.390;2023-07-13T06:36:41;101976.28;;;17.98;100.00
23261;BME280;11799;47.740;-3.390;2023-07-13T06:39:07;101981.34;;;18.01;100.00
23261;BME280;11799;47.740;-3.390;2023-07-13T06:41:32;101973.34;;;18.01;100.00
23261;BME280;11799;47.740;-3.390;2023-07-13T06:43:58;101978.81;;;18.00;100.00
23261;BME280;11799;47.740;-3.390;2023-07-13T06:46:24;101986.84;;;18.00;100.00
23261;BME280;11799;47.740;-3.390;2023-07-13T06:48:49;101985.00;;;18.00;100.00
23261;BME280;11799;47.740;-3.390;2023-07-13T06:51:15;101981.22;;;18.03;100.00
23261;BME280;11799;47.740;-3.390;2023-07-13T06:53:41;101987.25;;;18.05;100.00
23261;BME280;11799;47.740;-3.390;2023-07-13T06:56:09;101987.69;;;18.00;100.00
23261;BME280;11799;47.740;-3.390;2023-07-13T06:58:36;101988.53;;;18.01;100.00
23261;BME280;11799;47.740;-3.390;2023-07-13T07:01:02;101983.47;;;17.98;100.00
23261;BME280;11799;47.740;-3.390;2023-07-13T07:03:28;101983.31;;;17.99;100.00
23261;BME280;11799;47.740;-3.390;2023-07-13T07:05:54;101992.03;;;18.01;100.00
23261;BME280;11799;47.740;-3.390;2023-07-13T07:08:24;101987.25;;;18.05;100.00
23261;BME280;11799;47.740;-3.390;2023-07-13T07:10:50;101980.94;;;18.06;100.00
23261;BME280;11799;47.740;-3.390;2023-07-13T07:13:19;101991.34;;;18.09;100.00
23261;BME280;11799;47.740;-3.390;2023-07-13T07:15:45;101994.59;;;18.12;100.00
23261;BME280;11799;47.740;-3.390;2023-07-13T07:18:10;101982.91;;;18.13;100.00
23261;BME280;11799;47.740;-3.390;2023-07-13T07:20:36;101983.34;;;18.19;100.00
23261;BME280;11799;47.740;-3.390;2023-07-13T07:23:02;101986.72;;;18.21;100.00
23261;BME280;11799;47.740;-3.390;2023-07-13T07:25:27;101994.31;;;18.25;100.00
23261;BME280;11799;47.740;-3.390;2023-07-13T07:27:57;101986.00;;;18.28;100.00
23261;BME280;11799;47.740;-3.390;2023-07-13T07:30:23;101990.50;;;18.28;100.00
23261;BME280;11799;47.740;-3.390;2023-07-13T07:32:48;101993.47;;;18.34;100.00
23261;BME280;11799;47.740;-3.390;2023-07-13T07:35:14;101991.63;;;18.35;100.00
23261;BME280;11799;47.740;-3.390;2023-07-13T07:37:40;102000.66;;;18.34;100.00
23261;BME280;11799;47.740;-3.390;2023-07-13T07:40:06;101998.53;;;18.37;100.00
23261;BME280;11799;47.740;-3.390;2023-07-13T07:42:32;102000.66;;;18.43;100.00
23261;BME280;11799;47.740;-3.390;2023-07-13T07:44:57;102005.56;;;18.48;100.00
23261;BME280;11799;47.740;-3.390;2023-07-13T07:47:23;102000.75;;;18.52;100.00
23261;BME280;11799;47.740;-3.390;2023-07-13T07:49:49;102004.00;;;18.55;100.00
23261;BME280;11799;47.740;-3.390;2023-07-13T07:52:14;101998.50;;;18.57;100.00
23261;BME280;11799;47.740;-3.390;2023-07-13T07:54:40;101996.53;;;18.59;100.00
23261;BME280;11799;47.740;-3.390;2023-07-13T07:57:06;101998.63;;;18.55;100.00
23261;BME280;11799;47.740;-3.390;2023-07-13T07:59:32;101993.28;;;18.55;100.00
23261;BME280;11799;47.740;-3.390;2023-07-13T08:01:57;101995.44;;;18.61;100.00
23261;BME280;11799;47.740;-3.390;2023-07-13T08:04:23;102003.88;;;18.66;100.00
23261;BME280;11799;47.740;-3.390;2023-07-13T08:06:48;102002.59;;;18.70;100.00
23261;BME280;11799;47.740;-3.390;2023-07-13T08:09:14;102005.00;;;18.73;100.00
23261;BME280;11799;47.740;-3.390;2023-07-13T08:11:39;102009.50;;;18.73;100.00
23261;BME280;11799;47.740;-3.390;2023-07-13T08:14:05;102012.88;;;18.75;100.00
23261;BME280;11799;47.740;-3.390;2023-07-13T08:16:31;102009.91;;;18.78;100.00
23261;BME280;11799;47.740;-3.390;2023-07-13T08:18:58;101998.66;;;18.74;100.00
23261;BME280;11799;47.740;-3.390;2023-07-13T08:21:23;102006.38;;;18.77;100.00
23261;BME280;11799;47.740;-3.390;2023-07-13T08:23:49;102005.97;;;18.82;100.00
23261;BME280;11799;47.740;-3.390;2023-07-13T08:26:14;102010.47;;;18.82;100.00
23261;BME280;11799;47.740;-3.390;2023-07-13T08:28:41;102025.25;;;18.86;100.00
23261;BME280;11799;47.740;-3.390;2023-07-13T08:31:07;102005.97;;;18.82;100.00
23261;BME280;11799;47.740;-3.390;2023-07-13T08:33:34;102022.28;;;18.89;100.00
23261;BME280;11799;47.740;-3.390;2023-07-13T08:36:01;102014.97;;;18.91;100.00
23261;BME280;11799;47.740;-3.390;2023-07-13T08:38:27;102021.16;;;18.91;100.00
23261;BME280;11799;47.740;-3.390;2023-07-13T08:40:55;102016.22;;;18.96;100.00
23261;BME280;11799;47.740;-3.390;2023-07-13T08:43:35;102016.22;;;18.96;100.00
23261;BME280;11799;47.740;-3.390;2023-07-13T08:46:15;102018.47;;;18.91;100.00
23261;BME280;11799;47.740;-3.390;2023-07-13T08:48:49;102006.78;;;18.92;100.00
23261;BME280;11799;47.740;-3.390;2023-07-13T08:54:12;102012.28;;;18.91;100.00
23261;BME280;11799;47.740;-3.390;2023-07-13T08:56:45;102012.00;;;18.94;100.00
23261;BME280;11799;47.740;-3.390;2023-07-13T08:59:17;102004.66;;;18.96;100.00
23261;BME280;11799;47.740;-3.390;2023-07-13T09:04:56;102009.44;;;19.02;100.00
23261;BME280;11799;47.740;-3.390;2023-07-13T09:07:33;102000.16;;;18.96;100.00
23261;BME280;11799;47.740;-3.390;2023-07-13T09:10:15;102018.16;;;19.04;100.00
23261;BME280;11799;47.740;-3.390;2023-07-13T09:15:48;102018.88;;;19.06;100.00
23261;BME280;11799;47.740;-3.390;2023-07-13T09:24:12;102026.41;;;19.20;100.00
23261;BME280;11799;47.740;-3.390;2023-07-13T09:26:40;102030.63;;;19.23;100.00
23261;BME280;11799;47.740;-3.390;2023-07-13T09:29:17;102037.38;;;19.27;100.00
23261;BME280;11799;47.740;-3.390;2023-07-13T09:31:49;102032.56;;;19.30;100.00
23261;BME280;11799;47.740;-3.390;2023-07-13T09:34:18;102030.44;;;19.34;100.00
23261;BME280;11799;47.740;-3.390;2023-07-13T09:36:43;102028.31;;;19.37;100.00
23261;BME280;11799;47.740;-3.390;2023-07-13T09:39:14;102032.53;;;19.40;100.00
23261;BME280;11799;47.740;-3.390;2023-07-13T09:44:12;102034.47;;;19.48;100.00
23261;BME280;11799;47.740;-3.390;2023-07-13T09:46:52;102029.97;;;19.48;100.00
23261;BME280;11799;47.740;-3.390;2023-07-13T09:49:18;102030.41;;;19.53;100.00
23261;BME280;11799;47.740;-3.390;2023-07-13T09:51:44;102024.34;;;19.51;100.00
23261;BME280;11799;47.740;-3.390;2023-07-13T09:54:19;102036.84;;;19.60;100.00
23261;BME280;11799;47.740;-3.390;2023-07-13T09:56:45;102031.66;;;19.59;100.00
23261;BME280;11799;47.740;-3.390;2023-07-13T09:59:35;102023.75;;;19.57;100.00
23261;BME280;11799;47.740;-3.390;2023-07-13T10:04:55;102029.50;;;19.62;100.00
23261;BME280;11799;47.740;-3.390;2023-07-13T10:07:22;102035.09;;;19.69;100.00
23261;BME280;11799;47.740;-3.390;2023-07-13T10:09:52;102032.13;;;19.72;100.00
23261;BME280;11799;47.740;-3.390;2023-07-13T10:12:19;102036.78;;;19.70;100.00
23261;BME280;11799;47.740;-3.390;2023-07-13T10:14:46;102036.19;;;19.76;100.00
23261;BME280;11799;47.740;-3.390;2023-07-13T10:17:14;102042.47;;;19.85;100.00
23261;BME280;11799;47.740;-3.390;2023-07-13T10:19:41;102037.81;;;19.87;100.00
23261;BME280;11799;47.740;-3.390;2023-07-13T10:22:24;102040.06;;;19.91;100.00
23261;BME280;11799;47.740;-3.390;2023-07-13T10:24:53;102044.25;;;19.94;100.00
23261;BME280;11799;47.740;-3.390;2023-07-13T10:27:25;102054.69;;;19.97;100.00
23261;BME280;11799;47.740;-3.390;2023-07-13T10:30:06;102047.19;;;20.00;100.00
23261;BME280;11799;47.740;-3.390;2023-07-13T10:32:36;102036.72;;;20.07;100.00
23261;BME280;11799;47.740;-3.390;2023-07-13T10:35:03;102048.66;;;20.13;100.00
23261;BME280;11799;47.740;-3.390;2023-07-13T10:37:55;102046.38;;;20.18;100.00
23261;BME280;11799;47.740;-3.390;2023-07-13T10:40:29;102051.09;;;20.24;100.00
23261;BME280;11799;47.740;-3.390;2023-07-13T10:42:59;102045.88;;;20.22;100.00
23261;BME280;11799;47.740;-3.390;2023-07-13T10:45:31;102044.59;;;20.26;100.00
23261;BME280;11799;47.740;-3.390;2023-07-13T10:47:59;102031.03;;;20.28;100.00
23261;BME280;11799;47.740;-3.390;2023-07-13T10:50:27;102042.09;;;20.42;100.00
23261;BME280;11799;47.740;-3.390;2023-07-13T10:52:55;102037.81;;;20.50;100.00
23261;BME280;11799;47.740;-3.390;2023-07-13T10:55:55;102037.19;;;20.56;100.00
23261;BME280;11799;47.740;-3.390;2023-07-13T11:01:15;102033.56;;;20.65;100.00
23261;BME280;11799;47.740;-3.390;2023-07-13T11:19:08;102030.50;;;20.77;100.00
23261;BME280;11799;47.740;-3.390;2023-07-13T11:24:59;102022.16;;;20.89;100.00
23261;BME280;11799;47.740;-3.390;2023-07-13T11:28:03;102012.47;;;20.96;100.00
23261;BME280;11799;47.740;-3.390;2023-07-13T11:30:36;102018.19;;;21.01;100.00
23261;BME280;11799;47.740;-3.390;2023-07-13T11:40:55;102014.09;;;21.15;100.00
23261;BME280;11799;47.740;-3.390;2023-07-13T11:43:21;102011.66;;;21.21;100.00
23261;BME280;11799;47.740;-3.390;2023-07-13T11:45:51;102009.56;;;21.15;100.00
23261;BME280;11799;47.740;-3.390;2023-07-13T11:48:28;102016.03;;;21.22;100.00
23261;BME280;11799;47.740;-3.390;2023-07-13T11:51:03;102020.06;;;21.26;100.00
23261;BME280;11799;47.740;-3.390;2023-07-13T11:53:44;102016.22;;;21.29;100.00
23261;BME280;11799;47.740;-3.390;2023-07-13T11:56:11;102005.31;;;21.38;100.00
23261;BME280;11799;47.740;-3.390;2023-07-13T11:58:37;102007.72;;;21.50;100.00
23261;BME280;11799;47.740;-3.390;2023-07-13T12:01:03;102000.03;;;21.55;100.00
23261;BME280;11799;47.740;-3.390;2023-07-13T12:03:33;101994.84;;;21.61;100.00
23261;BME280;11799;47.740;-3.390;2023-07-13T12:06:03;101985.13;;;21.68;100.00
23261;BME280;11799;47.740;-3.390;2023-07-13T12:08:32;101991.69;;;21.74;100.00
23261;BME280;11799;47.740;-3.390;2023-07-13T12:11:05;101990.38;;;21.86;100.00
23261;BME280;11799;47.740;-3.390;2023-07-13T12:13:36;101986.69;;;21.87;100.00
23261;BME280;11799;47.740;-3.390;2023-07-13T12:16:11;101977.09;;;22.01;100.00
23261;BME280;11799;47.740;-3.390;2023-07-13T12:18:37;101975.63;;;22.06;100.00
23261;BME280;11799;47.740;-3.390;2023-07-13T12:21:04;101981.84;;;22.07;100.00
23261;BME280;11799;47.740;-3.390;2023-07-13T12:23:35;101984.53;;;22.07;100.00
23261;BME280;11799;47.740;-3.390;2023-07-13T12:26:05;101973.78;;;22.07;100.00
23261;BME280;11799;47.740;-3.390;2023-07-13T12:28:37;101973.63;;;22.08;100.00
23261;BME280;11799;47.740;-3.390;2023-07-13T12:31:22;101973.63;;;22.17;100.00
23261;BME280;11799;47.740;-3.390;2023-07-13T12:33:56;101971.28;;;22.22;100.00
23261;BME280;11799;47.740;-3.390;2023-07-13T12:36:22;101968.59;;;22.22;100.00
23261;BME280;11799;47.740;-3.390;2023-07-13T12:38:48;101964.53;;;22.18;100.00
23261;BME280;11799;47.740;-3.390;2023-07-13T12:41:14;101978.16;;;22.16;100.00
23261;BME280;11799;47.740;-3.390;2023-07-13T12:43:40;101974.63;;;22.24;100.00
23261;BME280;11799;47.740;-3.390;2023-07-13T12:48:42;101985.91;;;22.35;100.00
23261;BME280;11799;47.740;-3.390;2023-07-13T12:51:14;101991.13;;;22.37;100.00
23261;BME280;11799;47.740;-3.390;2023-07-13T12:53:41;101980.69;;;22.34;100.00
23261;BME280;11799;47.740;-3.390;2023-07-13T12:56:19;101976.16;;;22.34;100.00
23261;BME280;11799;47.740;-3.390;2023-07-13T12:58:47;101976.66;;;22.30;100.00
23261;BME280;11799;47.740;-3.390;2023-07-13T13:01:21;101971.78;;;22.25;100.00
23261;BME280;11799;47.740;-3.390;2023-07-13T13:03:50;101972.63;;;22.26;100.00
23261;BME280;11799;47.740;-3.390;2023-07-13T13:06:20;101975.81;;;22.29;100.00
23261;BME280;11799;47.740;-3.390;2023-07-13T13:08:54;101968.25;;;22.41;100.00
23261;BME280;11799;47.740;-3.390;2023-07-13T13:11:22;101970.94;;;22.49;100.00
23261;BME280;11799;47.740;-3.390;2023-07-13T13:13:49;101980.16;;;22.55;100.00
23261;BME280;11799;47.740;-3.390;2023-07-13T13:18:48;101971.06;;;22.56;100.00
23261;BME280;11799;47.740;-3.390;2023-07-13T13:21:15;101965.69;;;22.56;100.00
23261;BME280;11799;47.740;-3.390;2023-07-13T13:23:41;101975.78;;;22.62;100.00
23261;BME280;11799;47.740;-3.390;2023-07-13T13:26:14;101964.50;;;22.66;100.00
23261;BME280;11799;47.740;-3.390;2023-07-13T13:28:43;101966.16;;;22.76;100.00
23261;BME280;11799;47.740;-3.390;2023-07-13T13:31:10;101962.66;;;22.83;100.00
23261;BME280;11799;47.740;-3.390;2023-07-13T13:33:40;101974.94;;;22.86;100.00
23261;BME280;11799;47.740;-3.390;2023-07-13T13:36:20;101968.72;;;22.85;100.00